Time;durP1;ratioP1;P1;durP2;ratioP2;P2;SDS_P1;SDS_P2;PMS_P1;PMS_P2;Temp;Humidity;BMP_temperature;BMP_pressure;BME280_temperature;BME280_humidity;BME280_pressure;Samples;Min_cycle;Max_cycle;Signal;HPM_P1;HPM_P2
2021/12/19 00:00:28;;;;;;;9.07;3.17;;;;;;;;;;5035983;28;20025;-66
2021/12/19 00:08:49;;;;;;;10.55;2.88;;;;;;;;;;5035779;28;20036;-65
2021/12/19 00:11:15;;;;;;;14.48;3.20;;;;;;;;;;5035909;28;20034;-60
2021/12/19 00:13:40;;;;;;;8.43;2.55;;;;;;;;;;5035629;28;20032;-61
2021/12/19 00:16:07;;;;;;;10.48;1.98;;;;;;;;;;5035621;28;20445;-62
2021/12/19 00:18:33;;;;;;;9.65;2.30;;;;;;;;;;5011503;28;20163;-60
2021/12/19 00:20:58;;;;;;;7.50;2.30;;;;;;;;;;5028362;28;20033;-62
2021/12/19 00:23:24;;;;;;;10.63;2.70;;;;;;;;;;5035313;28;20047;-63
2021/12/19 00:25:49;;;;;;;9.60;2.65;;;;;;;;;;5035331;28;20021;-62
2021/12/19 00:28:15;;;;;;;9.38;1.92;;;;;;;;;;5035137;28;20026;-60
2021/12/19 00:30:40;;;;;;;15.02;2.50;;;;;;;;;;5035566;28;20021;-64
2021/12/19 00:33:06;;;;;;;10.75;2.72;;;;;;;;;;5035511;28;20025;-64
2021/12/19 00:35:31;;;;;;;8.48;2.33;;;;;;;;;;5035180;28;20464;-66
2021/12/19 00:37:57;;;;;;;9.73;2.60;;;;;;;;;;5034666;28;20126;-62
2021/12/19 00:40:23;;;;;;;8.68;2.50;;;;;;;;;;5034247;28;20121;-61
2021/12/19 00:42:52;;;;;;;5.95;2.10;;;;;;;;;;5034016;28;20026;-60
2021/12/19 00:45:30;;;;;;;8.60;2.58;;;;;;;;;;5037555;28;20022;-61
2021/12/19 00:47:56;;;;;;;12.85;2.05;;;;;;;;;;5033671;28;20025;-61
2021/12/19 00:50:22;;;;;;;10.57;2.35;;;;;;;;;;5033719;28;20037;-63
2021/12/19 00:52:48;;;;;;;7.45;2.40;;;;;;;;;;5033913;28;20127;-62
2021/12/19 00:55:19;;;;;;;7.90;2.00;;;;;;;;;;5033857;28;20022;-67
2021/12/19 00:57:46;;;;;;;10.35;2.28;;;;;;;;;;5033939;28;20021;-60
2021/12/19 01:00:18;;;;;;;6.93;1.65;;;;;;;;;;5033912;28;20188;-64
2021/12/19 01:02:44;;;;;;;13.43;2.67;;;;;;;;;;5033906;28;20116;-60
2021/12/19 01:05:10;;;;;;;9.60;2.03;;;;;;;;;;5033554;28;20057;-60
2021/12/19 01:07:37;;;;;;;13.43;2.28;;;;;;;;;;5033856;28;20021;-60
2021/12/19 01:10:05;;;;;;;11.02;2.45;;;;;;;;;;5033554;28;20036;-61
2021/12/19 01:12:32;;;;;;;10.52;2.33;;;;;;;;;;5033520;28;20415;-63
2021/12/19 01:14:58;;;;;;;7.90;1.95;;;;;;;;;;5033486;28;20041;-64
2021/12/19 01:17:24;;;;;;;5.28;2.33;;;;;;;;;;5033624;28;20460;-59
2021/12/19 01:19:50;;;;;;;6.88;2.42;;;;;;;;;;5033631;28;20083;-60
2021/12/19 01:22:16;;;;;;;11.85;2.47;;;;;;;;;;5033441;28;20468;-62
2021/12/19 01:24:42;;;;;;;7.75;2.22;;;;;;;;;;5033489;28;20067;-65
2021/12/19 01:27:07;;;;;;;10.95;2.33;;;;;;;;;;5033502;28;20025;-60
2021/12/19 01:29:33;;;;;;;4.70;2.03;;;;;;;;;;5033194;28;20030;-59
2021/12/19 01:32:00;;;;;;;9.15;2.38;;;;;;;;;;5033100;28;20362;-65
2021/12/19 01:34:25;;;;;;;6.57;2.00;;;;;;;;;;5033318;28;20021;-65
2021/12/19 01:36:51;;;;;;;6.07;2.08;;;;;;;;;;5033376;28;20427;-61
2021/12/19 01:39:17;;;;;;;13.17;3.17;;;;;;;;;;4991668;28;1224012;-65
2021/12/19 01:41:50;;;;;;;6.20;2.15;;;;;;;;;;5034040;28;20302;-62
2021/12/19 01:44:16;;;;;;;10.05;2.17;;;;;;;;;;5040388;28;20108;-62
2021/12/19 01:46:44;;;;;;;10.18;2.40;;;;;;;;;;5035085;28;20113;-64
2021/12/19 01:49:11;;;;;;;6.43;2.15;;;;;;;;;;5033950;28;20057;-64
2021/12/19 01:51:37;;;;;;;4.63;1.92;;;;;;;;;;5034148;28;20033;-66
2021/12/19 01:54:03;;;;;;;6.68;2.00;;;;;;;;;;5016287;28;20029;-66
2021/12/19 01:56:29;;;;;;;4.57;1.90;;;;;;;;;;5033874;28;20049;-65
2021/12/19 01:58:54;;;;;;;9.07;2.72;;;;;;;;;;5033925;28;20049;-66
2021/12/19 02:01:20;;;;;;;7.40;1.80;;;;;;;;;;5032889;28;20063;-63
2021/12/19 02:03:46;;;;;;;7.30;2.40;;;;;;;;;;5033622;28;20061;-66
2021/12/19 02:06:11;;;;;;;11.60;2.38;;;;;;;;;;5033307;28;20036;-62
2021/12/19 02:08:37;;;;;;;6.85;1.80;;;;;;;;;;5033489;28;20055;-64
2021/12/19 02:11:02;;;;;;;5.65;2.30;;;;;;;;;;5033461;28;20028;-67
2021/12/19 02:13:28;;;;;;;6.15;2.03;;;;;;;;;;5033587;28;20026;-66
2021/12/19 02:15:54;;;;;;;7.47;2.45;;;;;;;;;;5033181;28;20040;-63
2021/12/19 02:18:21;;;;;;;5.40;2.35;;;;;;;;;;5033484;28;20432;-66
2021/12/19 02:20:56;;;;;;;4.93;1.95;;;;;;;;;;5033301;28;20116;-66
2021/12/19 02:23:25;;;;;;;4.30;2.00;;;;;;;;;;5033483;28;20472;-66
2021/12/19 02:25:51;;;;;;;12.70;2.05;;;;;;;;;;5033359;28;20060;-66
2021/12/19 02:28:18;;;;;;;12.43;2.80;;;;;;;;;;5033359;28;20025;-66
2021/12/19 02:30:44;;;;;;;4.65;1.80;;;;;;;;;;5033033;28;20033;-59
2021/12/19 02:33:14;;;;;;;4.75;1.75;;;;;;;;;;5033348;28;20376;-60
2021/12/19 02:35:44;;;;;;;5.30;2.30;;;;;;;;;;5033180;28;20014;-61
2021/12/19 02:48:49;;;;;;;3.88;1.70;;;;;;;;;;5022080;28;20519;-59
2021/12/19 02:51:15;;;;;;;7.68;2.15;;;;;;;;;;5033058;28;20033;-62
2021/12/19 02:53:42;;;;;;;7.13;2.58;;;;;;;;;;5032935;28;20032;-62
2021/12/19 02:56:10;;;;;;;5.63;2.28;;;;;;;;;;5032824;28;20384;-60
2021/12/19 02:58:39;;;;;;;7.03;1.80;;;;;;;;;;5032937;28;20053;-61
2021/12/19 03:01:08;;;;;;;8.20;1.85;;;;;;;;;;5032530;28;20040;-59
2021/12/19 03:03:34;;;;;;;4.07;1.85;;;;;;;;;;5032872;28;20025;-59
2021/12/19 03:05:59;;;;;;;5.38;1.95;;;;;;;;;;5032596;28;20013;-62
2021/12/19 03:08:25;;;;;;;4.78;1.98;;;;;;;;;;5032795;28;20113;-60
2021/12/19 03:18:59;;;;;;;5.57;2.10;;;;;;;;;;4971585;28;20526;-66
2021/12/19 03:21:25;;;;;;;7.97;2.05;;;;;;;;;;4971751;28;20113;-62
2021/12/19 03:23:51;;;;;;;3.95;1.50;;;;;;;;;;4971537;28;20046;-64
2021/12/19 03:26:17;;;;;;;6.20;1.90;;;;;;;;;;4971336;28;20512;-60
2021/12/19 03:28:42;;;;;;;4.55;1.70;;;;;;;;;;4976891;28;20031;-62
2021/12/19 03:31:08;;;;;;;5.55;2.00;;;;;;;;;;4971603;28;20113;-65
2021/12/19 03:33:35;;;;;;;4.95;1.67;;;;;;;;;;4971447;28;20031;-65
2021/12/19 03:36:03;;;;;;;5.55;1.90;;;;;;;;;;4971479;28;20077;-63
2021/12/19 03:38:29;;;;;;;5.82;2.10;;;;;;;;;;4971366;28;20059;-61
2021/12/19 03:41:17;;;;;;;4.47;1.85;;;;;;;;;;4971564;28;20482;-66
2021/12/19 03:43:43;;;;;;;4.55;1.60;;;;;;;;;;4973364;28;20027;-60
2021/12/19 03:46:09;;;;;;;5.05;1.60;;;;;;;;;;4978896;28;20142;-64
2021/12/19 03:48:34;;;;;;;5.57;1.70;;;;;;;;;;4971084;28;20485;-66
2021/12/19 03:51:00;;;;;;;2.65;1.55;;;;;;;;;;4981184;28;20037;-65
2021/12/19 03:53:26;;;;;;;4.57;1.42;;;;;;;;;;5032044;28;20037;-65
2021/12/19 03:55:52;;;;;;;7.85;2.00;;;;;;;;;;5032109;28;20057;-66
2021/12/19 03:58:19;;;;;;;6.75;2.22;;;;;;;;;;5031817;28;20026;-66
2021/12/19 04:00:45;;;;;;;5.13;1.60;;;;;;;;;;5032279;28;20032;-65
2021/12/19 04:03:17;;;;;;;2.75;1.38;;;;;;;;;;5032066;28;20474;-65
2021/12/19 04:05:43;;;;;;;5.35;1.70;;;;;;;;;;5031945;28;20026;-67
2021/12/19 04:08:09;;;;;;;3.50;1.58;;;;;;;;;;5032152;28;20029;-67
2021/12/19 04:10:35;;;;;;;5.15;1.63;;;;;;;;;;5032205;28;20044;-64
2021/12/19 04:13:02;;;;;;;6.35;1.95;;;;;;;;;;5031836;28;20036;-64
2021/12/19 04:15:27;;;;;;;8.55;2.28;;;;;;;;;;5032022;28;20029;-66
2021/12/19 04:17:53;;;;;;;6.32;1.75;;;;;;;;;;5032009;28;20116;-62
2021/12/19 04:20:19;;;;;;;6.15;1.60;;;;;;;;;;5032009;28;20026;-65
2021/12/19 04:22:47;;;;;;;5.97;1.88;;;;;;;;;;5032075;28;20022;-60
2021/12/19 04:25:13;;;;;;;2.60;1.63;;;;;;;;;;5035766;28;20068;-64
2021/12/19 04:27:39;;;;;;;5.10;1.95;;;;;;;;;;5035287;28;20484;-60
2021/12/19 04:30:06;;;;;;;3.38;1.85;;;;;;;;;;5027861;28;20048;-60
2021/12/19 04:32:37;;;;;;;7.28;2.10;;;;;;;;;;5035376;28;20484;-62
2021/12/19 04:35:04;;;;;;;5.07;1.88;;;;;;;;;;5035515;28;20041;-62
2021/12/19 04:40:21;;;;;;;6.38;1.90;;;;;;;;;;5035623;28;20025;-62
2021/12/19 04:51:33;;;;;;;9.25;2.72;;;;;;;;;;5035109;28;20389;-60
2021/12/19 04:54:03;;;;;;;5.35;1.55;;;;;;;;;;5034483;28;20384;-60
2021/12/19 04:59:15;;;;;;;5.78;1.70;;;;;;;;;;5035144;28;20059;-60
2021/12/19 05:15:14;;;;;;;5.78;2.45;;;;;;;;;;5022293;28;20037;-62
2021/12/19 05:17:40;;;;;;;4.22;1.60;;;;;;;;;;5034510;28;20029;-64
2021/12/19 05:20:19;;;;;;;7.82;1.80;;;;;;;;;;5034636;28;20018;-63
2021/12/19 05:22:48;;;;;;;4.47;1.60;;;;;;;;;;5034580;28;20075;-65
2021/12/19 05:25:15;;;;;;;9.93;1.77;;;;;;;;;;5034492;28;20033;-66
2021/12/19 05:27:52;;;;;;;5.75;1.90;;;;;;;;;;5034377;28;20368;-66
2021/12/19 05:30:18;;;;;;;8.55;2.30;;;;;;;;;;5034457;28;20083;-64
2021/12/19 05:32:46;;;;;;;6.47;1.52;;;;;;;;;;5034437;28;20033;-66
2021/12/19 05:35:15;;;;;;;6.80;1.55;;;;;;;;;;5033149;28;20017;-66
2021/12/19 05:45:54;;;;;;;7.13;1.33;;;;;;;;;;4953979;28;20592;-65
2021/12/19 05:48:20;;;;;;;4.38;1.38;;;;;;;;;;4953950;29;20027;-66
2021/12/19 05:50:46;;;;;;;2.20;1.42;;;;;;;;;;4953642;29;20054;-66
2021/12/19 05:53:12;;;;;;;10.35;1.50;;;;;;;;;;4953906;29;20082;-66
2021/12/19 05:55:39;;;;;;;4.72;1.50;;;;;;;;;;4953488;29;20039;-63
2021/12/19 05:58:05;;;;;;;4.93;1.58;;;;;;;;;;4953562;29;20048;-64
2021/12/19 06:00:32;;;;;;;14.65;1.63;;;;;;;;;;4953525;29;20050;-66
2021/12/19 06:02:59;;;;;;;4.82;1.50;;;;;;;;;;4953649;29;20035;-66
2021/12/19 06:05:25;;;;;;;5.10;1.60;;;;;;;;;;4953548;29;20035;-66
2021/12/19 06:07:50;;;;;;;4.22;1.50;;;;;;;;;;4953250;29;20389;-65
2021/12/19 06:10:16;;;;;;;4.03;1.50;;;;;;;;;;4953099;29;20038;-66
2021/12/19 06:12:42;;;;;;;7.85;1.80;;;;;;;;;;4953500;29;20572;-67
2021/12/19 06:15:10;;;;;;;7.55;1.60;;;;;;;;;;4953399;28;20035;-67
2021/12/19 06:17:37;;;;;;;6.45;1.70;;;;;;;;;;4995910;28;20061;-63
2021/12/19 06:20:03;;;;;;;3.67;1.17;;;;;;;;;;5033273;28;20108;-63
2021/12/19 06:22:29;;;;;;;7.15;1.42;;;;;;;;;;5033263;28;20061;-65
2021/12/19 06:24:55;;;;;;;6.53;1.35;;;;;;;;;;5033361;28;20071;-67
2021/12/19 06:27:21;;;;;;;5.40;1.60;;;;;;;;;;5033396;28;20044;-62
2021/12/19 06:29:46;;;;;;;3.97;1.48;;;;;;;;;;5033111;28;20365;-67
2021/12/19 06:32:12;;;;;;;3.78;1.10;;;;;;;;;;5033144;28;20095;-65
2021/12/19 06:34:37;;;;;;;4.03;1.27;;;;;;;;;;5033022;28;20021;-67
2021/12/19 06:37:08;;;;;;;5.55;1.88;;;;;;;;;;5033084;28;20064;-63
2021/12/19 06:39:34;;;;;;;5.63;1.25;;;;;;;;;;5032935;28;20124;-67
2021/12/19 06:42:00;;;;;;;5.75;1.50;;;;;;;;;;5033162;28;20028;-63
2021/12/19 06:44:26;;;;;;;5.50;1.63;;;;;;;;;;5035479;28;20017;-66
2021/12/19 06:46:51;;;;;;;8.20;1.67;;;;;;;;;;5032728;28;20033;-67
2021/12/19 06:49:17;;;;;;;7.85;1.63;;;;;;;;;;5032353;28;20074;-67
2021/12/19 06:51:43;;;;;;;4.63;1.40;;;;;;;;;;5032496;28;20048;-66
2021/12/19 06:54:08;;;;;;;7.40;1.60;;;;;;;;;;5032311;28;20078;-67
2021/12/19 06:56:34;;;;;;;4.93;1.10;;;;;;;;;;5032974;28;20032;-67
2021/12/19 06:59:00;;;;;;;7.85;1.25;;;;;;;;;;5032619;28;20030;-62
2021/12/19 07:01:26;;;;;;;6.45;1.50;;;;;;;;;;5032849;28;20044;-66
2021/12/19 07:03:51;;;;;;;6.97;1.50;;;;;;;;;;5032708;28;20503;-65
2021/12/19 07:06:17;;;;;;;7.57;1.92;;;;;;;;;;5032719;28;20025;-64
2021/12/19 07:08:42;;;;;;;9.25;1.83;;;;;;;;;;5032553;28;20033;-65
2021/12/19 07:11:08;;;;;;;6.55;1.40;;;;;;;;;;5032579;28;20488;-66
2021/12/19 07:13:33;;;;;;;5.10;1.45;;;;;;;;;;5032543;28;20021;-62
2021/12/19 07:15:59;;;;;;;4.97;1.30;;;;;;;;;;5032637;28;20195;-65
2021/12/19 07:18:25;;;;;;;8.70;1.75;;;;;;;;;;5032074;28;20117;-64
2021/12/19 07:20:50;;;;;;;5.38;1.65;;;;;;;;;;5032487;28;20037;-66
2021/12/19 07:23:18;;;;;;;6.75;1.42;;;;;;;;;;5032491;28;20022;-64
2021/12/19 07:25:44;;;;;;;4.60;1.42;;;;;;;;;;5014813;28;20021;-66
2021/12/19 07:28:11;;;;;;;4.20;1.13;;;;;;;;;;5032226;28;20410;-66
2021/12/19 07:30:37;;;;;;;5.47;1.40;;;;;;;;;;5031249;28;20061;-64
2021/12/19 07:33:04;;;;;;;8.93;1.67;;;;;;;;;;5032444;28;20022;-62
2021/12/19 07:35:34;;;;;;;5.10;1.65;;;;;;;;;;5031955;28;20472;-66
2021/12/19 07:38:00;;;;;;;4.60;1.33;;;;;;;;;;5032205;28;20053;-65
2021/12/19 07:40:28;;;;;;;9.63;1.83;;;;;;;;;;5032410;28;20381;-63
2021/12/19 07:42:58;;;;;;;10.05;1.70;;;;;;;;;;5032306;28;20079;-64
2021/12/19 07:45:24;;;;;;;5.93;1.13;;;;;;;;;;5036054;28;20104;-63
2021/12/19 07:47:49;;;;;;;4.15;1.20;;;;;;;;;;5032275;28;20029;-62
2021/12/19 07:50:15;;;;;;;5.60;1.40;;;;;;;;;;5031814;28;20048;-66
2021/12/19 07:52:41;;;;;;;4.68;1.20;;;;;;;;;;5032216;28;20431;-61
2021/12/19 07:55:08;;;;;;;7.93;2.00;;;;;;;;;;5032241;28;20032;-65
2021/12/19 07:57:34;;;;;;;5.93;1.67;;;;;;;;;;5032197;28;20391;-66
2021/12/19 07:59:59;;;;;;;7.60;1.42;;;;;;;;;;5036277;28;20435;-65
2021/12/19 08:02:27;;;;;;;5.93;1.45;;;;;;;;;;5036133;28;20041;-66
2021/12/19 08:04:52;;;;;;;10.18;1.75;;;;;;;;;;5035726;28;20108;-65
2021/12/19 08:07:23;;;;;;;8.82;1.85;;;;;;;;;;5035971;28;20459;-67
2021/12/19 08:12:32;;;;;;;4.13;1.65;;;;;;;;;;5036115;28;20447;-67
2021/12/19 08:14:58;;;;;;;8.60;1.60;;;;;;;;;;5036084;28;20484;-65
2021/12/19 08:17:23;;;;;;;7.45;1.40;;;;;;;;;;5035732;28;20076;-66
2021/12/19 08:19:49;;;;;;;4.70;1.30;;;;;;;;;;5035736;28;20129;-66
2021/12/19 08:22:15;;;;;;;5.90;1.98;;;;;;;;;;5035616;28;20025;-65
2021/12/19 08:24:41;;;;;;;3.63;1.60;;;;;;;;;;5035539;28;20362;-65
2021/12/19 08:27:08;;;;;;;4.68;1.50;;;;;;;;;;5035567;28;20049;-63
2021/12/19 08:29:33;;;;;;;6.18;1.75;;;;;;;;;;5035353;28;20052;-67
2021/12/19 08:31:59;;;;;;;8.90;1.50;;;;;;;;;;5035426;28;20400;-60
2021/12/19 08:34:24;;;;;;;4.60;1.58;;;;;;;;;;5035260;28;20029;-64
2021/12/19 08:36:50;;;;;;;10.23;2.13;;;;;;;;;;5035323;28;20090;-66
2021/12/19 08:39:16;;;;;;;10.65;2.17;;;;;;;;;;5035435;28;20041;-62
2021/12/19 08:41:41;;;;;;;5.18;1.33;;;;;;;;;;5035391;28;20087;-65
2021/12/19 08:44:08;;;;;;;6.15;1.17;;;;;;;;;;5040286;28;20039;-62
2021/12/19 08:46:35;;;;;;;5.28;1.50;;;;;;;;;;5037508;28;20025;-66
2021/12/19 08:49:03;;;;;;;5.70;1.58;;;;;;;;;;5034532;28;20493;-65
2021/12/19 08:51:29;;;;;;;5.15;1.70;;;;;;;;;;5035250;28;20021;-66
2021/12/19 08:53:55;;;;;;;8.85;2.05;;;;;;;;;;5035325;28;20083;-67
2021/12/19 08:56:20;;;;;;;7.60;1.85;;;;;;;;;;5035027;28;20449;-64
2021/12/19 08:58:46;;;;;;;4.22;1.30;;;;;;;;;;5035008;28;20025;-65
2021/12/19 09:01:11;;;;;;;2.22;0.93;;;;;;;;;;5034976;28;20032;-64
2021/12/19 09:03:37;;;;;;;7.03;1.52;;;;;;;;;;5034814;28;20068;-66
2021/12/19 09:06:03;;;;;;;5.90;1.25;;;;;;;;;;5034695;28;20037;-65
2021/12/19 09:08:29;;;;;;;9.13;1.73;;;;;;;;;;5034535;28;20100;-67
2021/12/19 09:10:56;;;;;;;8.50;1.60;;;;;;;;;;5034364;28;20120;-66
2021/12/19 09:13:23;;;;;;;8.38;1.88;;;;;;;;;;5034666;28;20029;-66
2021/12/19 09:15:49;;;;;;;5.63;1.60;;;;;;;;;;5034632;28;20071;-66
2021/12/19 09:18:16;;;;;;;6.88;1.92;;;;;;;;;;5034437;28;20036;-66
2021/12/19 09:20:42;;;;;;;5.82;1.60;;;;;;;;;;5034456;28;20038;-67
2021/12/19 09:23:07;;;;;;;5.82;1.88;;;;;;;;;;5034207;28;20017;-65
2021/12/19 09:25:35;;;;;;;8.30;1.95;;;;;;;;;;5034359;28;20026;-66
2021/12/19 09:28:01;;;;;;;7.13;1.70;;;;;;;;;;5034428;28;20032;-63
2021/12/19 09:30:27;;;;;;;7.13;1.45;;;;;;;;;;5034438;28;20034;-65
2021/12/19 09:32:53;;;;;;;4.03;1.40;;;;;;;;;;5034305;28;20029;-67
2021/12/19 09:35:19;;;;;;;7.60;1.52;;;;;;;;;;5033856;28;20032;-66
2021/12/19 09:37:45;;;;;;;6.88;2.00;;;;;;;;;;5033837;28;20034;-67
2021/12/19 09:40:12;;;;;;;5.43;1.50;;;;;;;;;;5034224;28;20387;-65
2021/12/19 09:42:46;;;;;;;3.17;1.25;;;;;;;;;;5034106;28;20029;-67
2021/12/19 09:45:12;;;;;;;10.48;1.83;;;;;;;;;;5044865;28;20017;-64
2021/12/19 09:47:37;;;;;;;8.77;1.50;;;;;;;;;;5032536;28;20036;-67
2021/12/19 09:50:05;;;;;;;7.47;1.80;;;;;;;;;;5033776;28;20025;-66
2021/12/19 09:52:31;;;;;;;4.95;1.42;;;;;;;;;;5034111;28;20025;-67
2021/12/19 09:54:57;;;;;;;3.95;1.52;;;;;;;;;;5033872;28;20060;-66
2021/12/19 09:57:23;;;;;;;6.00;1.55;;;;;;;;;;5033917;28;20030;-65
2021/12/19 09:59:49;;;;;;;5.88;1.58;;;;;;;;;;5033723;28;20124;-67
2021/12/19 10:02:16;;;;;;;7.45;2.40;;;;;;;;;;5033590;28;20112;-67
2021/12/19 10:04:44;;;;;;;4.05;1.45;;;;;;;;;;5033537;28;20033;-66
2021/12/19 10:07:20;;;;;;;6.50;1.92;;;;;;;;;;5033642;28;20091;-66
2021/12/19 10:09:59;;;;;;;10.95;3.92;;;;;;;;;;5033636;28;20021;-67
2021/12/19 10:12:48;;;;;;;12.20;3.13;;;;;;;;;;5033493;28;20029;-66
2021/12/19 10:15:26;;;;;;;10.13;3.72;;;;;;;;;;5033260;28;20025;-64
2021/12/19 10:18:06;;;;;;;6.93;2.60;;;;;;;;;;5033373;28;20021;-64
2021/12/19 10:20:47;;;;;;;10.27;3.70;;;;;;;;;;5032831;28;20025;-67
2021/12/19 10:23:22;;;;;;;8.80;1.92;;;;;;;;;;5021494;28;20032;-67
2021/12/19 10:26:06;;;;;;;12.05;3.10;;;;;;;;;;5033185;28;20507;-67
2021/12/19 10:28:33;;;;;;;6.80;1.00;;;;;;;;;;5026050;28;20018;-65
2021/12/19 10:31:01;;;;;;;6.28;2.53;;;;;;;;;;5031594;28;20030;-68
2021/12/19 10:33:32;;;;;;;5.03;1.63;;;;;;;;;;5033222;28;20457;-66
2021/12/19 10:36:04;;;;;;;6.10;1.73;;;;;;;;;;5033259;28;20021;-66
2021/12/19 10:38:43;;;;;;;7.25;2.38;;;;;;;;;;5033117;28;20049;-67
2021/12/19 10:41:10;;;;;;;9.35;1.63;;;;;;;;;;5033138;28;20057;-66
2021/12/19 10:44:07;;;;;;;6.78;1.70;;;;;;;;;;5033309;28;20177;-67
2021/12/19 10:46:38;;;;;;;6.28;1.98;;;;;;;;;;5041011;28;20033;-66
2021/12/19 10:49:05;;;;;;;10.10;2.50;;;;;;;;;;5032833;28;20091;-67
2021/12/19 10:51:37;;;;;;;7.60;2.30;;;;;;;;;;5032849;28;20030;-64
2021/12/19 10:54:04;;;;;;;6.80;1.77;;;;;;;;;;5032583;28;20030;-66
2021/12/19 10:56:35;;;;;;;6.38;2.95;;;;;;;;;;5032907;28;20503;-67
2021/12/19 10:59:05;;;;;;;6.45;2.70;;;;;;;;;;5032607;28;20411;-67
2021/12/19 11:01:32;;;;;;;9.85;2.38;;;;;;;;;;5032627;28;20030;-66
2021/12/19 11:04:13;;;;;;;5.28;1.60;;;;;;;;;;5032726;28;20025;-66
2021/12/19 11:06:39;;;;;;;7.13;2.30;;;;;;;;;;5032572;28;20021;-65
2021/12/19 11:09:26;;;;;;;12.55;1.85;;;;;;;;;;5032841;28;20026;-65
2021/12/19 11:12:05;;;;;;;6.97;3.20;;;;;;;;;;5032538;28;20057;-66
2021/12/19 11:14:34;;;;;;;7.65;2.50;;;;;;;;;;5032258;28;20061;-66
2021/12/19 11:17:10;;;;;;;11.82;3.83;;;;;;;;;;5032509;28;20380;-66
2021/12/19 11:19:38;;;;;;;12.05;3.20;;;;;;;;;;5032375;28;20029;-66
2021/12/19 11:22:04;;;;;;;12.63;2.22;;;;;;;;;;5032580;28;20112;-66
2021/12/19 11:24:30;;;;;;;10.80;2.10;;;;;;;;;;5032481;28;20067;-66
2021/12/19 11:26:59;;;;;;;9.05;1.90;;;;;;;;;;5032396;28;20018;-67
2021/12/19 11:29:25;;;;;;;8.10;1.70;;;;;;;;;;5032205;28;20022;-66
2021/12/19 11:31:58;;;;;;;7.22;2.20;;;;;;;;;;5033070;28;20017;-66
2021/12/19 11:34:56;;;;;;;4.88;1.50;;;;;;;;;;5036671;28;20391;-66
2021/12/19 11:38:00;;;;;;;10.85;3.70;;;;;;;;;;5036457;28;20455;-67
2021/12/19 11:40:31;;;;;;;14.77;3.47;;;;;;;;;;5034206;28;20430;-67
2021/12/19 11:43:09;;;;;;;7.82;2.25;;;;;;;;;;5036293;28;20061;-65
2021/12/19 11:45:45;;;;;;;5.32;1.88;;;;;;;;;;5036711;28;20503;-65
2021/12/19 11:48:14;;;;;;;7.40;2.65;;;;;;;;;;5036681;28;20415;-67
2021/12/19 11:50:51;;;;;;;6.93;1.80;;;;;;;;;;5036044;28;20441;-67
2021/12/19 11:53:17;;;;;;;16.30;4.22;;;;;;;;;;5036231;28;20124;-67
2021/12/19 11:55:46;;;;;;;10.50;2.20;;;;;;;;;;5035756;28;20175;-63
2021/12/19 11:58:12;;;;;;;16.85;4.47;;;;;;;;;;5035900;28;20515;-62
2021/12/19 12:00:57;;;;;;;10.85;3.13;;;;;;;;;;5036009;28;20075;-62
2021/12/19 12:03:46;;;;;;;16.58;4.07;;;;;;;;;;5035883;28;20453;-64
2021/12/19 12:06:19;;;;;;;10.13;2.83;;;;;;;;;;5035526;28;20033;-64
2021/12/19 12:09:23;;;;;;;9.90;3.42;;;;;;;;;;5035911;28;20021;-62
2021/12/19 12:12:01;;;;;;;11.30;3.45;;;;;;;;;;5035500;28;20361;-65
2021/12/19 12:14:30;;;;;;;12.80;3.22;;;;;;;;;;5035861;28;20025;-61
2021/12/19 12:17:03;;;;;;;9.35;2.33;;;;;;;;;;5022963;28;20025;-62
2021/12/19 12:19:48;;;;;;;15.18;2.50;;;;;;;;;;5035832;28;20041;-64
2021/12/19 12:22:26;;;;;;;9.43;2.65;;;;;;;;;;5035827;28;20029;-67
2021/12/19 12:25:04;;;;;;;14.50;2.30;;;;;;;;;;5035210;28;20033;-61
2021/12/19 12:27:47;;;;;;;7.65;2.80;;;;;;;;;;5035392;28;20024;-64
2021/12/19 12:30:25;;;;;;;11.43;2.00;;;;;;;;;;5023094;28;20064;-64
2021/12/19 12:32:52;;;;;;;16.98;7.22;;;;;;;;;;5035459;28;20028;-64
2021/12/19 12:35:19;;;;;;;10.40;4.55;;;;;;;;;;5035349;28;20021;-61
2021/12/19 12:37:48;;;;;;;25.92;11.65;;;;;;;;;;5035123;28;20053;-65
2021/12/19 12:40:29;;;;;;;17.08;6.05;;;;;;;;;;5035145;28;20369;-65
2021/12/19 12:43:09;;;;;;;12.02;5.78;;;;;;;;;;5035152;28;20032;-66
2021/12/19 12:46:08;;;;;;;13.45;4.30;;;;;;;;;;5037770;28;20071;-63
2021/12/19 12:48:54;;;;;;;14.30;3.20;;;;;;;;;;4993406;28;20041;-61
2021/12/19 12:51:40;;;;;;;8.68;3.83;;;;;;;;;;4977280;28;20397;-64
2021/12/19 12:54:26;;;;;;;12.65;3.35;;;;;;;;;;4993433;28;20022;-61
2021/12/19 12:56:57;;;;;;;13.60;3.70;;;;;;;;;;4981146;28;20046;-60
2021/12/19 12:59:28;;;;;;;17.85;3.80;;;;;;;;;;4980798;28;20077;-67
2021/12/19 13:02:06;;;;;;;15.63;3.63;;;;;;;;;;4993245;28;20030;-62
2021/12/19 13:04:33;;;;;;;9.98;3.70;;;;;;;;;;4993494;28;20412;-61
2021/12/19 13:07:04;;;;;;;13.57;5.43;;;;;;;;;;4993361;28;20030;-67
2021/12/19 13:09:35;;;;;;;14.13;3.55;;;;;;;;;;4993157;28;20058;-65
2021/12/19 13:12:11;;;;;;;13.75;3.20;;;;;;;;;;4992493;28;20038;-65
2021/12/19 13:14:55;;;;;;;10.98;3.15;;;;;;;;;;4993283;28;20061;-64
2021/12/19 13:17:28;;;;;;;14.75;3.05;;;;;;;;;;4993280;28;20117;-66
2021/12/19 13:19:59;;;;;;;14.27;3.88;;;;;;;;;;4993159;28;20034;-60
2021/12/19 13:22:29;;;;;;;12.70;2.78;;;;;;;;;;4993130;28;20026;-61
2021/12/19 13:24:58;;;;;;;14.38;2.67;;;;;;;;;;5026377;28;20034;-66
2021/12/19 13:27:27;;;;;;;11.90;2.42;;;;;;;;;;5034514;28;20039;-66
2021/12/19 13:29:56;;;;;;;8.75;2.60;;;;;;;;;;5034106;28;20030;-62
2021/12/19 13:32:32;;;;;;;11.98;3.00;;;;;;;;;;5016451;28;20021;-60
2021/12/19 13:34:59;;;;;;;12.73;2.97;;;;;;;;;;5034263;28;20484;-60
2021/12/19 13:37:25;;;;;;;9.77;2.97;;;;;;;;;;5033987;28;20072;-60
2021/12/19 13:40:06;;;;;;;15.73;3.45;;;;;;;;;;5034269;28;20109;-66
2021/12/19 13:42:46;;;;;;;11.77;3.55;;;;;;;;;;5034285;28;20030;-66
2021/12/19 13:45:22;;;;;;;11.82;3.42;;;;;;;;;;5037283;28;20041;-65
2021/12/19 13:47:48;;;;;;;24.92;8.23;;;;;;;;;;5034198;28;20021;-64
2021/12/19 13:50:14;;;;;;;10.80;2.97;;;;;;;;;;5034048;28;20387;-65
2021/12/19 13:52:40;;;;;;;15.10;3.40;;;;;;;;;;5034000;28;20369;-66
2021/12/19 13:55:11;;;;;;;15.82;3.38;;;;;;;;;;5033455;28;20041;-64
2021/12/19 13:57:37;;;;;;;17.63;4.00;;;;;;;;;;5033439;28;20025;-67
2021/12/19 14:00:11;;;;;;;16.15;3.50;;;;;;;;;;5038320;28;20484;-65
2021/12/19 14:02:40;;;;;;;13.27;3.50;;;;;;;;;;5014483;28;20091;-66
2021/12/19 14:05:33;;;;;;;17.98;3.45;;;;;;;;;;5033832;28;20421;-66
2021/12/19 14:07:59;;;;;;;12.68;3.88;;;;;;;;;;5033350;28;20021;-67
2021/12/19 14:10:25;;;;;;;11.68;3.05;;;;;;;;;;5033538;28;20060;-67
2021/12/19 14:12:57;;;;;;;21.80;4.50;;;;;;;;;;5033768;28;20021;-67
2021/12/19 14:15:23;;;;;;;13.40;3.33;;;;;;;;;;5033446;28;20052;-67
2021/12/19 14:17:50;;;;;;;22.15;4.47;;;;;;;;;;5033560;28;20484;-67
2021/12/19 14:20:15;;;;;;;13.30;2.83;;;;;;;;;;5033434;28;20121;-66
2021/12/19 14:22:41;;;;;;;13.00;3.55;;;;;;;;;;5033332;28;20048;-66
2021/12/19 14:25:07;;;;;;;10.85;2.53;;;;;;;;;;5033151;28;20361;-67
2021/12/19 14:27:38;;;;;;;17.38;2.92;;;;;;;;;;5033493;28;20025;-67
2021/12/19 14:30:10;;;;;;;16.55;3.85;;;;;;;;;;5033050;28;20026;-65
2021/12/19 14:32:55;;;;;;;12.15;3.22;;;;;;;;;;5033425;28;20097;-62
2021/12/19 14:35:20;;;;;;;30.63;9.43;;;;;;;;;;5033181;28;20092;-67
2021/12/19 14:37:50;;;;;;;17.00;4.28;;;;;;;;;;5032970;28;20457;-66
2021/12/19 14:40:27;;;;;;;17.83;3.50;;;;;;;;;;5033208;28;20052;-66
2021/12/19 14:43:13;;;;;;;18.27;4.75;;;;;;;;;;5015628;28;20025;-65
2021/12/19 14:45:50;;;;;;;12.45;3.72;;;;;;;;;;5041226;28;20022;-67
2021/12/19 14:48:40;;;;;;;18.52;4.72;;;;;;;;;;5032815;28;20384;-67
2021/12/19 14:51:11;;;;;;;13.33;3.63;;;;;;;;;;5032192;28;20052;-67
2021/12/19 14:53:46;;;;;;;13.13;3.97;;;;;;;;;;5020227;28;20021;-67
2021/12/19 14:56:14;;;;;;;15.63;3.95;;;;;;;;;;5032690;28;20033;-63
2021/12/19 14:58:47;;;;;;;11.27;3.92;;;;;;;;;;5032901;28;20060;-66
2021/12/19 15:01:28;;;;;;;13.77;3.83;;;;;;;;;;5032894;28;20065;-66
2021/12/19 15:03:58;;;;;;;12.63;3.55;;;;;;;;;;5032938;28;20084;-66
2021/12/19 15:06:25;;;;;;;17.25;3.67;;;;;;;;;;5032546;28;20106;-67
2021/12/19 15:08:52;;;;;;;12.27;3.85;;;;;;;;;;5032825;28;20491;-66
2021/12/19 15:11:19;;;;;;;17.23;4.43;;;;;;;;;;5032631;28;20395;-66
2021/12/19 15:13:45;;;;;;;13.13;4.53;;;;;;;;;;5032668;28;20029;-64
2021/12/19 15:16:10;;;;;;;15.13;4.00;;;;;;;;;;5032532;28;20112;-64
2021/12/19 15:18:36;;;;;;;17.40;4.07;;;;;;;;;;5032720;28;20500;-64
2021/12/19 15:21:03;;;;;;;17.45;5.07;;;;;;;;;;5032204;28;20025;-66
2021/12/19 15:23:29;;;;;;;14.20;4.30;;;;;;;;;;5032601;28;20499;-66
2021/12/19 15:25:55;;;;;;;16.00;4.35;;;;;;;;;;5032482;28;20025;-63
2021/12/19 15:28:23;;;;;;;14.23;5.18;;;;;;;;;;5032312;28;20033;-65
2021/12/19 15:30:51;;;;;;;19.55;4.28;;;;;;;;;;5032148;28;20036;-65
2021/12/19 15:33:17;;;;;;;16.70;5.07;;;;;;;;;;5032440;28;20032;-63
2021/12/19 15:35:47;;;;;;;13.00;4.82;;;;;;;;;;5032023;28;20026;-66
2021/12/19 15:38:14;;;;;;;15.95;4.90;;;;;;;;;;5032404;28;20439;-63
2021/12/19 15:40:40;;;;;;;13.73;3.35;;;;;;;;;;5032298;28;20076;-62
2021/12/19 15:43:06;;;;;;;15.07;3.92;;;;;;;;;;5032221;28;20079;-66
2021/12/19 15:45:32;;;;;;;13.80;3.30;;;;;;;;;;5042583;28;20030;-63
2021/12/19 15:47:58;;;;;;;19.38;4.38;;;;;;;;;;5032214;28;20498;-64
2021/12/19 15:50:24;;;;;;;18.45;7.15;;;;;;;;;;5032134;28;20040;-61
2021/12/19 15:52:50;;;;;;;19.10;6.43;;;;;;;;;;5032320;28;20100;-64